Time;durP1;ratioP1;P1;durP2;ratioP2;P2;SDS_P1;SDS_P2;PMS_P1;PMS_P2;Temp;Humidity;BMP_temperature;BMP_pressure;BME280_temperature;BME280_humidity;BME280_pressure;Samples;Min_cycle;Max_cycle;Signal;HPM_P1;HPM_P2
2024/01/02 00:01:42;;;;;;;2.40;0.38;;;;;;;4.20;100.00;100636.72;5066638;28;20107;-69
2024/01/02 00:04:08;;;;;;;3.13;0.85;;;;;;;4.45;100.00;100638.50;5068238;28;21756;-69
2024/01/02 00:06:33;;;;;;;2.22;0.38;;;;;;;4.62;100.00;100633.06;5063148;28;20028;-68
2024/01/02 00:08:58;;;;;;;1.05;0.20;;;;;;;4.72;100.00;100622.13;5068879;28;20036;-69
2024/01/02 00:11:24;;;;;;;2.40;0.30;;;;;;;4.72;100.00;100622.94;5067692;28;20524;-69
2024/01/02 00:13:49;;;;;;;2.10;0.30;;;;;;;4.88;100.00;100628.69;5067579;28;20032;-69
2024/01/02 00:16:16;;;;;;;0.90;0.30;;;;;;;4.99;100.00;100633.16;5067959;28;20036;-69
2024/01/02 00:18:41;;;;;;;2.53;0.30;;;;;;;5.07;100.00;100620.53;5064722;28;20402;-69
2024/01/02 00:21:07;;;;;;;1.05;0.30;;;;;;;5.04;100.00;100625.09;5072334;28;20035;-69
2024/01/02 00:23:32;;;;;;;1.30;0.50;;;;;;;5.00;100.00;100617.53;5066208;28;20028;-69
2024/01/02 00:25:58;;;;;;;0.75;0.20;;;;;;;4.95;100.00;100616.19;5068407;28;20025;-69
2024/01/02 00:28:23;;;;;;;0.95;0.20;;;;;;;4.92;100.00;100612.06;5069082;28;20148;-69
2024/01/02 00:30:49;;;;;;;1.52;0.43;;;;;;;4.93;100.00;100621.47;5068613;28;20090;-69
2024/01/02 00:33:14;;;;;;;1.35;0.30;;;;;;;4.93;100.00;100626.63;5071297;28;20451;-69
2024/01/02 00:35:40;;;;;;;0.50;0.20;;;;;;;4.93;100.00;100623.22;5066206;28;20039;-69
2024/01/02 00:38:08;;;;;;;0.68;0.30;;;;;;;4.94;100.00;100610.22;5067240;28;20063;-68
2024/01/02 00:40:33;;;;;;;3.38;0.30;;;;;;;4.95;100.00;100611.88;5068273;28;20036;-68
2024/01/02 00:42:59;;;;;;;0.38;0.13;;;;;;;5.02;100.00;100606.28;5065205;28;20028;-69
2024/01/02 00:45:24;;;;;;;1.02;0.10;;;;;;;4.99;100.00;100608.16;5067775;28;20044;-69
2024/01/02 00:47:51;;;;;;;1.02;0.20;;;;;;;4.87;100.00;100615.91;5071016;28;20058;-68
2024/01/02 00:50:17;;;;;;;0.85;0.20;;;;;;;4.69;100.00;100620.56;5068433;28;20040;-69
2024/01/02 00:52:43;;;;;;;1.60;0.32;;;;;;;4.56;100.00;100625.72;5067216;28;20081;-68
2024/01/02 00:55:09;;;;;;;1.35;0.55;;;;;;;4.36;100.00;100633.13;5067434;28;20059;-68
2024/01/02 00:57:35;;;;;;;1.88;0.40;;;;;;;4.24;100.00;100625.28;5066914;28;20483;-69
2024/01/02 01:00:01;;;;;;;1.58;0.32;;;;;;;4.27;100.00;100627.63;5069811;28;20028;-68
2024/01/02 01:02:27;;;;;;;3.28;0.20;;;;;;;4.42;100.00;100630.97;5068923;28;20037;-69
2024/01/02 01:04:52;;;;;;;0.40;0.10;;;;;;;4.64;100.00;100643.28;5068120;28;20073;-69
2024/01/02 01:07:17;;;;;;;0.50;0.10;;;;;;;4.74;100.00;100643.47;5067616;28;20116;-69
2024/01/02 01:09:43;;;;;;;1.48;0.10;;;;;;;4.73;100.00;100650.38;5067706;28;20025;-68
2024/01/02 01:12:09;;;;;;;0.55;0.10;;;;;;;4.74;100.00;100653.78;5070330;28;20056;-68
2024/01/02 01:14:35;;;;;;;3.33;0.20;;;;;;;4.70;100.00;100647.22;5070001;28;20048;-68
2024/01/02 01:17:01;;;;;;;1.42;0.20;;;;;;;4.61;100.00;100649.47;5067892;28;20017;-68
2024/01/02 01:19:26;;;;;;;1.35;0.45;;;;;;;4.59;100.00;100648.75;5066968;28;20040;-68
2024/01/02 01:21:52;;;;;;;1.67;0.20;;;;;;;4.57;100.00;100642.84;5064544;28;20073;-68
2024/01/02 01:24:18;;;;;;;3.40;0.30;;;;;;;4.55;100.00;100647.28;5073494;28;20525;-69
2024/01/02 01:26:45;;;;;;;0.52;0.10;;;;;;;4.52;100.00;100650.06;5067017;28;20515;-68
2024/01/02 01:29:10;;;;;;;0.68;0.20;;;;;;;4.52;100.00;100644.09;5067492;28;20390;-68
2024/01/02 01:31:36;;;;;;;0.57;0.20;;;;;;;4.48;100.00;100647.78;5066219;28;20044;-68
2024/01/02 01:34:01;;;;;;;0.82;0.20;;;;;;;4.47;100.00;100646.97;5069079;28;20108;-69
2024/01/02 01:36:27;;;;;;;4.10;0.20;;;;;;;4.47;100.00;100646.13;5064789;28;20032;-69
2024/01/02 01:38:52;;;;;;;2.20;0.30;;;;;;;4.46;100.00;100649.66;5067811;28;20036;-68
2024/01/02 01:41:18;;;;;;;5.43;0.57;;;;;;;4.46;100.00;100647.06;5069914;28;20033;-69
2024/01/02 01:43:46;;;;;;;4.78;0.30;;;;;;;4.51;100.00;100658.75;5071203;28;20032;-68
2024/01/02 01:46:14;;;;;;;1.10;0.20;;;;;;;4.49;100.00;100650.28;5073965;28;20154;-69
2024/01/02 01:48:39;;;;;;;0.80;0.20;;;;;;;4.45;100.00;100648.00;5072888;28;20043;-69
2024/01/02 01:51:05;;;;;;;0.73;0.20;;;;;;;4.43;100.00;100644.69;5069516;28;21573;-69
2024/01/02 01:53:31;;;;;;;0.60;0.15;;;;;;;4.45;100.00;100643.66;5069091;28;20393;-68
2024/01/02 01:55:58;;;;;;;4.00;0.47;;;;;;;4.46;100.00;100649.66;5071763;28;20622;-68
2024/01/02 01:58:23;;;;;;;1.67;0.20;;;;;;;4.47;100.00;100641.81;5068590;28;20048;-68
2024/01/02 02:00:49;;;;;;;1.13;0.20;;;;;;;4.40;100.00;100644.88;5069800;28;20043;-68
2024/01/02 02:03:16;;;;;;;1.90;0.32;;;;;;;4.37;100.00;100645.09;5070125;28;20029;-69
2024/01/02 02:05:42;;;;;;;0.47;0.13;;;;;;;4.30;100.00;100647.22;5069965;28;20039;-68
2024/01/02 02:08:07;;;;;;;0.77;0.15;;;;;;;4.28;100.00;100644.75;5069635;28;20706;-68
2024/01/02 02:10:33;;;;;;;0.57;0.10;;;;;;;4.24;100.00;100645.09;5072194;28;20110;-69
2024/01/02 02:12:59;;;;;;;0.40;0.15;;;;;;;4.16;100.00;100640.41;5070508;28;20491;-68
2024/01/02 02:15:24;;;;;;;1.27;0.20;;;;;;;4.15;100.00;100636.19;5073441;28;20683;-68
2024/01/02 02:17:49;;;;;;;1.02;0.10;;;;;;;4.13;100.00;100635.47;5075759;28;20028;-68
2024/01/02 02:20:15;;;;;;;1.58;0.30;;;;;;;4.12;100.00;100635.56;5072118;28;20486;-68
2024/01/02 02:22:58;;;;;;;0.50;0.20;;;;;;;4.16;100.00;100629.28;5069293;28;20079;-69
2024/01/02 02:25:24;;;;;;;0.88;0.17;;;;;;;4.15;100.00;100631.03;5071720;28;20046;-69
2024/01/02 02:27:49;;;;;;;0.55;0.20;;;;;;;4.15;100.00;100633.59;5071041;28;20037;-69
2024/01/02 02:30:15;;;;;;;0.55;0.20;;;;;;;4.15;100.00;100627.63;5071283;28;20035;-68
2024/01/02 02:32:40;;;;;;;0.60;0.20;;;;;;;4.14;100.00;100624.22;5069785;28;20063;-69
2024/01/02 02:35:06;;;;;;;0.32;0.10;;;;;;;4.10;100.00;100627.91;5072167;28;20035;-68
2024/01/02 02:37:32;;;;;;;0.40;0.10;;;;;;;4.10;100.00;100622.75;5069477;28;20032;-68
2024/01/02 02:39:57;;;;;;;2.63;0.20;;;;;;;4.09;100.00;100612.53;5074365;28;20031;-69
2024/01/02 02:42:23;;;;;;;1.02;0.20;;;;;;;4.07;100.00;100610.06;5070863;28;20041;-68
2024/01/02 02:44:48;;;;;;;0.73;0.20;;;;;;;4.10;100.00;100603.88;5072129;28;20031;-68
2024/01/02 02:47:14;;;;;;;0.30;0.10;;;;;;;4.15;100.00;100607.81;5072336;28;20120;-68
2024/01/02 02:49:40;;;;;;;0.38;0.10;;;;;;;4.18;100.00;100601.63;5069348;28;20647;-68
2024/01/02 02:52:06;;;;;;;1.25;0.10;;;;;;;4.17;100.00;100598.22;5068251;28;20060;-69
2024/01/02 02:54:31;;;;;;;0.38;0.10;;;;;;;4.19;100.00;100606.69;5071522;28;20558;-69
2024/01/02 02:56:57;;;;;;;0.68;0.10;;;;;;;4.23;100.00;100603.00;5070927;28;20032;-69
2024/01/02 02:59:22;;;;;;;0.75;0.20;;;;;;;4.20;100.00;100605.75;5068472;28;20119;-68
2024/01/02 03:01:48;;;;;;;1.23;0.13;;;;;;;4.24;100.00;100604.63;5069613;28;20033;-69
2024/01/02 03:04:14;;;;;;;1.90;0.20;;;;;;;4.22;100.00;100611.66;5073052;28;20089;-68
2024/01/02 03:06:39;;;;;;;3.83;0.20;;;;;;;4.19;100.00;100617.00;5075125;28;20111;-68
2024/01/02 03:09:05;;;;;;;0.40;0.10;;;;;;;4.13;100.00;100619.97;5072343;28;20487;-68
2024/01/02 03:11:30;;;;;;;0.75;0.15;;;;;;;4.12;100.00;100630.41;5069511;28;20461;-68
2024/01/02 03:13:56;;;;;;;1.27;0.13;;;;;;;4.07;100.00;100632.44;5072968;28;20497;-69
2024/01/02 03:16:23;;;;;;;1.35;0.20;;;;;;;4.05;100.00;100634.28;5071294;28;20036;-68
2024/01/02 03:18:48;;;;;;;0.55;0.10;;;;;;;4.05;100.00;100645.44;5074979;28;20378;-68
2024/01/02 03:21:14;;;;;;;0.50;0.20;;;;;;;4.08;100.00;100649.56;5069722;28;20028;-68
2024/01/02 03:23:40;;;;;;;0.10;0.00;;;;;;;4.03;100.00;100655.00;5067993;28;20094;-68
2024/01/02 03:26:06;;;;;;;0.60;0.10;;;;;;;4.00;100.00;100655.22;5071230;28;20029;-69
2024/01/02 03:28:31;;;;;;;0.70;0.10;;;;;;;3.98;100.00;100660.47;5071377;28;20029;-68
2024/01/02 03:30:57;;;;;;;0.57;0.10;;;;;;;4.04;100.00;100666.16;5070052;28;20114;-68
2024/01/02 03:33:23;;;;;;;0.80;0.20;;;;;;;4.04;100.00;100659.25;5073851;28;20035;-68
2024/01/02 03:35:49;;;;;;;3.60;0.10;;;;;;;4.02;100.00;100666.25;5069988;28;20044;-69
2024/01/02 03:38:15;;;;;;;0.55;0.13;;;;;;;3.96;100.00;100658.91;5068424;28;20070;-68
2024/01/02 03:40:40;;;;;;;0.85;0.10;;;;;;;3.92;100.00;100654.88;5066928;28;20056;-68
2024/01/02 03:43:06;;;;;;;0.47;0.10;;;;;;;3.89;100.00;100655.06;5072462;28;20059;-68
2024/01/02 03:45:32;;;;;;;0.30;0.10;;;;;;;3.86;100.00;100650.09;5069736;28;20028;-68
2024/01/02 03:47:57;;;;;;;1.40;0.20;;;;;;;3.82;100.00;100653.78;5072538;28;20090;-68
2024/01/02 03:50:23;;;;;;;0.40;0.10;;;;;;;3.82;100.00;100653.78;5070942;28;20037;-68
2024/01/02 03:52:48;;;;;;;1.13;0.20;;;;;;;3.87;100.00;100638.88;5070113;28;20402;-68
2024/01/02 03:55:14;;;;;;;1.13;0.20;;;;;;;3.88;100.00;100645.66;5069136;28;20090;-68
2024/01/02 03:57:40;;;;;;;0.70;0.17;;;;;;;3.98;100.00;100628.69;5067147;28;20028;-68
2024/01/02 04:00:06;;;;;;;0.40;0.05;;;;;;;4.02;100.00;100619.03;5067544;28;20094;-69
2024/01/02 04:02:31;;;;;;;2.35;0.20;;;;;;;4.02;100.00;100613.88;5067846;28;20094;-69
2024/01/02 04:04:57;;;;;;;0.38;0.10;;;;;;;4.04;100.00;100618.00;5069670;28;20021;-69
2024/01/02 04:07:22;;;;;;;2.22;0.25;;;;;;;3.98;100.00;100618.38;5066425;28;20037;-69
2024/01/02 04:09:48;;;;;;;2.35;0.30;;;;;;;3.95;100.00;100613.44;5066434;28;20223;-69
2024/01/02 04:12:13;;;;;;;0.17;0.00;;;;;;;3.89;100.00;100617.22;5068158;28;20230;-69
2024/01/02 04:14:39;;;;;;;2.25;0.10;;;;;;;3.86;100.00;100619.16;5066364;28;20021;-69
2024/01/02 04:17:04;;;;;;;0.88;0.13;;;;;;;3.85;100.00;100612.34;5068943;28;20059;-69
2024/01/02 04:19:30;;;;;;;0.30;0.10;;;;;;;3.84;100.00;100615.84;5068113;28;20032;-69
2024/01/02 04:21:55;;;;;;;0.80;0.10;;;;;;;3.78;100.00;100613.69;5068402;28;20036;-69
2024/01/02 04:24:21;;;;;;;0.40;0.10;;;;;;;3.70;100.00;100609.03;5069693;28;20036;-69
2024/01/02 04:26:46;;;;;;;0.32;0.10;;;;;;;3.65;100.00;100604.16;5066387;28;20024;-69
2024/01/02 04:29:12;;;;;;;0.65;0.28;;;;;;;3.59;100.00;100601.97;5070055;28;20116;-69
2024/01/02 04:31:37;;;;;;;1.83;0.20;;;;;;;3.59;100.00;100606.28;5065248;28;20048;-69
2024/01/02 04:34:02;;;;;;;0.55;0.10;;;;;;;3.57;100.00;100603.81;5067589;28;20037;-69
2024/01/02 04:36:28;;;;;;;0.63;0.10;;;;;;;3.55;100.00;100603.09;5066358;28;20123;-69
2024/01/02 04:38:53;;;;;;;3.35;0.30;;;;;;;3.53;100.00;100601.53;5069880;28;20024;-69
2024/01/02 04:41:20;;;;;;;0.55;0.10;;;;;;;3.50;100.00;100601.72;5069486;28;20649;-69
2024/01/02 04:43:45;;;;;;;0.32;0.20;;;;;;;3.47;100.00;100602.72;5066196;28;20025;-69
2024/01/02 04:46:11;;;;;;;0.60;0.10;;;;;;;3.46;100.00;100601.06;5073827;28;20085;-69
2024/01/02 04:48:37;;;;;;;0.30;0.10;;;;;;;3.41;100.00;100602.28;5067457;28;20029;-69
2024/01/02 04:51:02;;;;;;;0.68;0.10;;;;;;;3.45;100.00;100593.44;5066748;28;20032;-69
2024/01/02 04:53:28;;;;;;;0.30;0.10;;;;;;;3.39;100.00;100599.81;5068756;28;20170;-69
2024/01/02 04:55:54;;;;;;;1.02;0.20;;;;;;;3.43;100.00;100596.13;5069079;28;20401;-69
2024/01/02 04:58:20;;;;;;;0.50;0.10;;;;;;;3.44;100.00;100592.63;5071256;28;20028;-69
2024/01/02 05:00:45;;;;;;;0.50;0.10;;;;;;;3.46;100.00;100590.78;5067289;28;20090;-69
2024/01/02 05:03:11;;;;;;;0.80;0.43;;;;;;;3.44;100.00;100595.19;5069304;28;20035;-69
2024/01/02 05:05:36;;;;;;;0.85;0.20;;;;;;;3.45;100.00;100603.75;5066470;28;20089;-69
2024/01/02 05:08:01;;;;;;;0.40;0.20;;;;;;;3.49;100.00;100606.03;5069635;28;20393;-69
2024/01/02 05:10:27;;;;;;;0.63;0.17;;;;;;;3.54;100.00;100600.59;5064970;28;20048;-69
2024/01/02 05:12:52;;;;;;;0.70;0.20;;;;;;;3.53;100.00;100610.09;5069003;28;20031;-69
2024/01/02 05:15:18;;;;;;;1.45;0.22;;;;;;;3.53;100.00;100614.41;5070167;28;20061;-69
2024/01/02 05:17:44;;;;;;;0.57;0.10;;;;;;;3.50;100.00;100618.00;5069571;28;20032;-69
2024/01/02 05:20:10;;;;;;;0.25;0.10;;;;;;;3.44;100.00;100617.53;5066373;28;20051;-69
2024/01/02 05:22:35;;;;;;;0.63;0.10;;;;;;;3.40;100.00;100614.34;5068964;28;20040;-69
2024/01/02 05:25:01;;;;;;;0.63;0.10;;;;;;;3.42;100.00;100621.97;5067682;28;20331;-69
2024/01/02 05:27:26;;;;;;;0.93;0.20;;;;;;;3.39;100.00;100614.44;5073934;28;20477;-69
2024/01/02 05:29:52;;;;;;;1.13;0.20;;;;;;;3.35;100.00;100618.94;5066794;28;20055;-69
2024/01/02 05:32:17;;;;;;;0.85;0.10;;;;;;;3.34;100.00;100612.13;5060431;28;20105;-69
2024/01/02 05:34:43;;;;;;;1.13;0.20;;;;;;;3.33;100.00;100613.06;5068297;28;20044;-69
2024/01/02 05:37:08;;;;;;;0.32;0.10;;;;;;;3.32;100.00;100601.94;5069872;28;20537;-69
2024/01/02 05:39:33;;;;;;;0.75;0.20;;;;;;;3.36;100.00;100596.59;5071728;28;20118;-69
2024/01/02 05:41:59;;;;;;;0.10;0.03;;;;;;;3.37;100.00;100601.66;5067809;28;20039;-69
2024/01/02 05:44:24;;;;;;;0.85;0.10;;;;;;;3.37;100.00;100593.91;5071891;28;20028;-69
2024/01/02 05:46:50;;;;;;;0.50;0.17;;;;;;;3.38;100.00;100595.56;5071953;28;20029;-69
2024/01/02 05:49:15;;;;;;;0.38;0.10;;;;;;;3.39;100.00;100604.94;5072571;28;20120;-69
2024/01/02 05:51:41;;;;;;;0.68;0.13;;;;;;;3.43;100.00;100606.41;5067140;28;20036;-69
2024/01/02 05:54:06;;;;;;;1.17;0.10;;;;;;;3.42;100.00;100609.91;5069483;28;20050;-69
2024/01/02 05:56:32;;;;;;;0.73;0.20;;;;;;;3.42;100.00;100607.34;5070129;28;20132;-69
2024/01/02 05:58:57;;;;;;;0.60;0.10;;;;;;;3.39;100.00;100612.69;5068259;28;20044;-69
2024/01/02 06:01:23;;;;;;;1.10;0.20;;;;;;;3.39;100.00;100617.81;5066395;28;20036;-69
2024/01/02 06:03:48;;;;;;;3.80;0.10;;;;;;;3.38;100.00;100618.75;5067667;28;20367;-69
2024/01/02 06:06:13;;;;;;;0.25;0.10;;;;;;;3.38;100.00;100629.06;5071467;28;20106;-69
2024/01/02 06:08:39;;;;;;;0.43;0.10;;;;;;;3.38;100.00;100626.47;5069609;28;20032;-69
2024/01/02 06:11:05;;;;;;;1.45;0.20;;;;;;;3.41;100.00;100625.47;5067418;28;20052;-69
2024/01/02 06:13:30;;;;;;;0.43;0.25;;;;;;;3.42;100.00;100620.22;5066498;28;20413;-69
2024/01/02 06:15:56;;;;;;;0.45;0.10;;;;;;;3.47;100.00;100618.19;5066664;28;20023;-69
2024/01/02 06:18:21;;;;;;;0.77;0.20;;;;;;;3.48;100.00;100604.38;5066937;28;20036;-69
2024/01/02 06:20:47;;;;;;;1.75;0.30;;;;;;;3.53;100.00;100604.94;5069642;28;20020;-69
2024/01/02 06:23:12;;;;;;;3.40;0.20;;;;;;;3.55;100.00;100605.66;5070114;28;20029;-69
2024/01/02 06:25:38;;;;;;;0.40;0.10;;;;;;;3.56;100.00;100615.03;5067454;28;20024;-69
2024/01/02 06:28:04;;;;;;;0.38;0.10;;;;;;;3.57;100.00;100611.53;5071744;28;20099;-69
2024/01/02 06:30:29;;;;;;;5.32;0.20;;;;;;;3.57;100.00;100613.28;5069837;28;20043;-69
2024/01/02 06:32:54;;;;;;;0.75;0.17;;;;;;;3.60;100.00;100618.25;5065102;28;20036;-69
2024/01/02 06:35:20;;;;;;;1.10;0.22;;;;;;;3.64;100.00;100620.53;5070818;28;20602;-69
2024/01/02 06:37:45;;;;;;;0.40;0.10;;;;;;;3.71;100.00;100620.16;5070281;28;20056;-69
2024/01/02 06:40:11;;;;;;;0.63;0.10;;;;;;;3.74;100.00;100633.69;5077980;28;20048;-69
2024/01/02 06:42:36;;;;;;;1.05;0.38;;;;;;;3.73;100.00;100623.47;5074722;28;20035;-69
2024/01/02 06:45:02;;;;;;;0.68;0.10;;;;;;;3.73;100.00;100618.31;5075889;28;20028;-69
2024/01/02 06:47:27;;;;;;;0.77;0.10;;;;;;;3.76;100.00;100628.44;5072092;28;20124;-69
2024/01/02 06:49:52;;;;;;;0.95;0.10;;;;;;;3.75;100.00;100629.34;5069976;28;20166;-70
2024/01/02 06:52:18;;;;;;;0.52;0.10;;;;;;;3.76;100.00;100638.75;5072328;28;20056;-69
2024/01/02 06:54:44;;;;;;;0.98;0.30;;;;;;;3.75;100.00;100652.56;5071662;28;20032;-69
2024/01/02 06:57:09;;;;;;;0.50;0.10;;;;;;;3.79;100.00;100643.66;5070328;28;20481;-69
2024/01/02 06:59:35;;;;;;;0.57;0.20;;;;;;;3.85;100.00;100632.97;5069162;28;20389;-69
2024/01/02 07:02:00;;;;;;;0.68;0.10;;;;;;;3.86;100.00;100645.78;5069797;28;20473;-69
2024/01/02 07:04:26;;;;;;;1.15;0.30;;;;;;;3.90;100.00;100646.41;5071148;28;20094;-69
2024/01/02 07:06:52;;;;;;;0.70;0.20;;;;;;;3.93;100.00;100647.03;5068971;28;20031;-69
2024/01/02 07:09:18;;;;;;;0.60;0.10;;;;;;;3.94;100.00;100642.72;5072099;28;20133;-69
2024/01/02 07:11:44;;;;;;;1.23;0.30;;;;;;;3.93;100.00;100644.47;5070162;28;20029;-69
2024/01/02 07:14:10;;;;;;;0.50;0.10;;;;;;;3.94;100.00;100647.88;5075105;28;20035;-69
2024/01/02 07:16:36;;;;;;;1.83;0.22;;;;;;;3.95;100.00;100641.78;5070739;28;20020;-69
2024/01/02 07:19:01;;;;;;;1.25;0.20;;;;;;;3.94;100.00;100638.38;5071946;28;20042;-69
2024/01/02 07:21:26;;;;;;;1.17;0.20;;;;;;;3.98;100.00;100634.69;5071827;28;20039;-69
2024/01/02 07:23:52;;;;;;;1.15;0.28;;;;;;;3.99;100.00;100643.25;5072153;28;20032;-69
2024/01/02 07:26:17;;;;;;;1.90;0.32;;;;;;;4.04;100.00;100653.25;5069733;28;20040;-69
2024/01/02 07:28:43;;;;;;;1.45;0.40;;;;;;;4.07;100.00;100664.22;5069528;28;20044;-69
2024/01/02 07:31:10;;;;;;;2.10;0.30;;;;;;;4.12;100.00;100662.16;5079585;28;20393;-69
2024/01/02 07:33:36;;;;;;;0.68;0.28;;;;;;;4.15;100.00;100651.66;5075281;28;20465;-69
2024/01/02 07:36:01;;;;;;;0.40;0.10;;;;;;;4.11;100.00;100633.91;5072221;28;20017;-70
2024/01/02 07:38:27;;;;;;;0.40;0.10;;;;;;;4.08;100.00;100628.94;5071444;28;20058;-69
2024/01/02 07:40:53;;;;;;;0.82;0.20;;;;;;;4.05;100.00;100635.13;5069596;28;20036;-69
2024/01/02 07:43:18;;;;;;;0.60;0.10;;;;;;;4.07;100.00;100628.13;5066165;28;20656;-70
2024/01/02 07:45:44;;;;;;;2.10;0.10;;;;;;;4.05;100.00;100635.13;5067140;28;20028;-69
2024/01/02 07:48:09;;;;;;;0.30;0.10;;;;;;;4.07;100.00;100643.59;5070658;28;20454;-69
2024/01/02 07:50:35;;;;;;;1.30;0.20;;;;;;;4.12;100.00;100649.28;5073205;28;20023;-69
2024/01/02 07:53:00;;;;;;;1.77;0.20;;;;;;;4.18;100.00;100656.63;5071968;28;20115;-69
2024/01/02 07:55:26;;;;;;;0.60;0.20;;;;;;;4.21;100.00;100669.31;5069063;28;20050;-70
2024/01/02 07:57:51;;;;;;;0.95;0.30;;;;;;;4.22;100.00;100673.56;5068785;28;20033;-70
2024/01/02 08:00:17;;;;;;;1.77;0.30;;;;;;;4.24;100.00;100678.63;5066496;28;20442;-69
2024/01/02 08:02:43;;;;;;;0.35;0.20;;;;;;;4.22;100.00;100673.56;5068710;28;20074;-69
2024/01/02 08:05:08;;;;;;;0.63;0.20;;;;;;;4.23;100.00;100675.22;5068541;28;20020;-69
2024/01/02 08:07:34;;;;;;;0.30;0.17;;;;;;;4.21;100.00;100677.06;5065997;28;20064;-69
2024/01/02 08:09:59;;;;;;;2.00;0.10;;;;;;;4.17;100.00;100669.59;5064407;28;20097;-69
2024/01/02 08:12:25;;;;;;;0.60;0.20;;;;;;;4.16;100.00;100663.63;5066828;28;20028;-69
2024/01/02 08:14:50;;;;;;;7.50;0.20;;;;;;;4.20;100.00;100659.09;5068552;28;20043;-69
2024/01/02 08:17:20;;;;;;;1.42;0.28;;;;;;;4.22;100.00;100662.41;5067902;28;20032;-69
2024/01/02 08:19:45;;;;;;;2.10;0.20;;;;;;;4.29;100.00;100659.31;5066869;28;20564;-70
2024/01/02 08:22:12;;;;;;;0.77;0.20;;;;;;;4.37;100.00;100658.81;5069796;28;20081;-70
2024/01/02 08:24:38;;;;;;;0.90;0.30;;;;;;;4.43;100.00;100658.41;5067717;28;20059;-70
2024/01/02 08:27:04;;;;;;;1.25;0.30;;;;;;;4.43;100.00;100655.00;5069592;28;20072;-69
2024/01/02 08:29:29;;;;;;;0.80;0.20;;;;;;;4.44;100.00;100656.66;5066023;28;20065;-70
2024/01/02 08:31:55;;;;;;;0.93;0.20;;;;;;;4.45;100.00;100653.97;5072575;28;20032;-69
2024/01/02 08:34:20;;;;;;;1.60;0.30;;;;;;;4.49;100.00;100647.69;5073186;28;20040;-70
2024/01/02 08:36:46;;;;;;;0.50;0.20;;;;;;;4.53;100.00;100635.41;5069320;28;20062;-70
2024/01/02 08:39:11;;;;;;;1.02;0.30;;;;;;;4.58;100.00;100639.34;5070115;28;20040;-70
2024/01/02 08:41:37;;;;;;;3.95;0.25;;;;;;;4.65;100.00;100639.78;5069618;28;20090;-70
2024/01/02 08:44:03;;;;;;;0.75;0.30;;;;;;;4.68;100.00;100629.25;5067143;28;20032;-70
2024/01/02 08:46:28;;;;;;;0.98;0.20;;;;;;;4.73;100.00;100637.47;5066957;28;20024;-70
2024/01/02 08:48:54;;;;;;;2.05;0.30;;;;;;;4.83;100.00;100648.00;5070025;28;20081;-70
2024/01/02 08:51:20;;;;;;;2.40;0.30;;;;;;;4.89;100.00;100658.75;5062528;28;20033;-70
2024/01/02 08:53:45;;;;;;;0.60;0.20;;;;;;;4.91;100.00;100649.16;5065811;28;20124;-70
2024/01/02 08:56:11;;;;;;;0.60;0.20;;;;;;;4.96;100.00;100636.75;5068919;28;20111;-70
2024/01/02 08:58:37;;;;;;;3.10;0.30;;;;;;;5.00;100.00;100638.19;5068029;28;20071;-70
2024/01/02 09:01:03;;;;;;;0.90;0.20;;;;;;;5.02;100.00;100638.09;5068715;28;20119;-70
2024/01/02 09:03:30;;;;;;;1.35;0.20;;;;;;;5.05;100.00;100635.31;5064298;28;20116;-70
2024/01/02 09:05:56;;;;;;;0.95;0.17;;;;;;;5.03;100.00;100638.94;5071364;28;20058;-70
2024/01/02 09:08:21;;;;;;;0.50;0.20;;;;;;;5.07;100.00;100641.19;5064118;28;20036;-70
2024/01/02 09:10:46;;;;;;;0.68;0.20;;;;;;;5.18;100.00;100643.06;5067574;28;20468;-70
2024/01/02 09:13:12;;;;;;;1.13;0.40;;;;;;;5.26;100.00;100638.97;5065691;28;20040;-70
2024/01/02 09:15:39;;;;;;;1.10;0.20;;;;;;;5.21;100.00;100632.47;5066940;28;20077;-70
2024/01/02 09:18:04;;;;;;;1.92;0.38;;;;;;;5.16;100.00;100624.25;5068162;28;20035;-70
2024/01/02 09:20:30;;;;;;;0.60;0.20;;;;;;;5.16;100.00;100621.66;5066733;28;20036;-70
2024/01/02 09:22:55;;;;;;;2.15;0.30;;;;;;;5.22;100.00;100621.22;5065988;28;20118;-71
2024/01/02 09:25:26;;;;;;;0.75;0.20;;;;;;;5.31;100.00;100618.81;5063980;28;20086;-71
2024/01/02 09:27:56;;;;;;;1.05;0.30;;;;;;;5.46;100.00;100622.09;5061411;28;20065;-71
2024/01/02 09:30:23;;;;;;;1.25;0.30;;;;;;;5.54;100.00;100632.72;5061982;28;20052;-70
2024/01/02 09:32:49;;;;;;;1.25;0.30;;;;;;;5.57;100.00;100639.44;5061707;28;20123;-69
2024/01/02 09:35:15;;;;;;;1.20;0.22;;;;;;;5.59;100.00;100647.91;5065190;28;20189;-71
2024/01/02 09:37:41;;;;;;;1.02;0.20;;;;;;;5.61;100.00;100646.03;5066544;28;20112;-70
2024/01/02 09:40:27;;;;;;;4.70;0.30;;;;;;;5.66;100.00;100649.97;5067300;28;20121;-70
2024/01/02 09:43:15;;;;;;;2.22;0.38;;;;;;;5.75;100.00;100648.44;5032372;28;20045;-70
2024/01/02 09:45:40;;;;;;;1.15;0.30;;;;;;;5.80;100.00;100641.19;5025688;28;20489;-70
2024/01/02 09:48:41;;;;;;;1.67;0.30;;;;;;;5.76;100.00;100637.19;5056141;28;20098;-70
2024/01/02 09:51:12;;;;;;;1.75;0.20;;;;;;;5.79;100.00;100638.72;5057766;28;20047;-70
2024/01/02 09:54:07;;;;;;;1.15;0.30;;;;;;;5.76;100.00;100633.75;5065229;28;20036;-71
2024/01/02 09:57:04;;;;;;;1.20;0.30;;;;;;;5.81;100.00;100621.34;5066971;28;20489;-71
2024/01/02 09:59:48;;;;;;;1.90;0.30;;;;;;;5.75;100.00;100611.44;5062741;28;20083;-70
2024/01/02 10:02:19;;;;;;;2.30;0.40;;;;;;;5.71;100.00;100615.16;5066426;28;20060;-71
2024/01/02 10:04:47;;;;;;;2.58;0.60;;;;;;;5.75;100.00;100614.84;5068375;28;20036;-70
2024/01/02 10:07:33;;;;;;;1.50;0.40;;;;;;;5.68;100.00;100616.22;5065251;28;20078;-70
2024/01/02 10:10:03;;;;;;;1.33;0.30;;;;;;;5.68;100.00;100609.28;5068527;28;20036;-70
2024/01/02 10:12:30;;;;;;;1.55;0.40;;;;;;;5.75;100.00;100596.75;5070784;28;20032;-70
2024/01/02 10:15:18;;;;;;;1.35;0.30;;;;;;;5.76;100.00;100589.81;5080051;28;20032;-70
2024/01/02 10:18:03;;;;;;;0.90;0.30;;;;;;;5.76;100.00;100580.28;5071487;28;20024;-70
2024/01/02 10:20:59;;;;;;;2.83;1.08;;;;;;;5.87;100.00;100595.88;5067920;28;20044;-70
2024/01/02 10:23:33;;;;;;;4.05;1.20;;;;;;;5.91;100.00;100599.09;5069026;28;20040;-71
2024/01/02 10:26:02;;;;;;;5.90;1.60;;;;;;;5.98;100.00;100606.28;5071078;28;20028;-70
2024/01/02 10:28:28;;;;;;;1.98;0.63;;;;;;;6.09;100.00;100597.75;5069360;28;20036;-71
2024/01/02 10:31:07;;;;;;;2.15;0.60;;;;;;;6.20;100.00;100600.34;5070772;28;20138;-70
2024/01/02 10:33:59;;;;;;;4.35;1.00;;;;;;;6.30;100.00;100605.69;5069738;28;20090;-71
2024/01/02 10:36:27;;;;;;;2.97;1.05;;;;;;;6.37;100.00;100609.47;5053466;28;20497;-70
2024/01/02 10:38:59;;;;;;;3.20;1.40;;;;;;;6.38;100.00;100612.88;5072949;28;20036;-70
2024/01/02 10:41:46;;;;;;;1.67;0.73;;;;;;;6.40;100.00;100618.75;5071042;28;20495;-70
2024/01/02 10:44:14;;;;;;;3.33;0.98;;;;;;;6.42;100.00;100616.88;5068841;28;20081;-71
2024/01/02 10:46:41;;;;;;;2.40;0.70;;;;;;;6.43;100.00;100621.13;5065590;28;20752;-70
2024/01/02 10:49:28;;;;;;;1.58;0.80;;;;;;;6.38;100.00;100626.63;5065823;28;20119;-71
2024/01/02 10:52:20;;;;;;;1.95;0.73;;;;;;;6.44;100.00;100625.38;5070088;28;20032;-71
2024/01/02 10:54:57;;;;;;;2.75;0.60;;;;;;;6.65;100.00;100615.97;5055173;28;20044;-71
2024/01/02 10:57:43;;;;;;;1.52;0.63;;;;;;;6.70;100.00;100616.44;5068392;28;20183;-71
2024/01/02 11:00:20;;;;;;;1.27;0.40;;;;;;;6.77;100.00;100607.28;5070502;28;20440;-71
2024/01/02 11:02:57;;;;;;;1.58;0.30;;;;;;;6.86;100.00;100604.00;5060263;28;20090;-71
2024/01/02 11:05:28;;;;;;;1.55;0.65;;;;;;;6.97;100.00;100609.19;5065562;28;20101;-71
2024/01/02 11:08:06;;;;;;;3.03;0.60;;;;;;;7.04;100.00;100611.31;5074121;28;20040;-67
2024/01/02 11:10:38;;;;;;;2.10;0.47;;;;;;;7.11;100.00;100604.69;5069363;28;20090;-68
2024/01/02 11:13:07;;;;;;;4.13;0.70;;;;;;;7.13;100.00;100595.84;5068935;28;20048;-68
2024/01/02 11:15:38;;;;;;;1.83;0.70;;;;;;;7.12;100.00;100593.38;5051593;28;20032;-68
2024/01/02 11:18:05;;;;;;;2.10;0.88;;;;;;;7.07;100.00;100588.59;5067987;28;20212;-68
2024/01/02 11:20:44;;;;;;;3.28;0.93;;;;;;;7.07;100.00;100579.97;5065711;28;20029;-68
2024/01/02 11:23:15;;;;;;;3.28;1.08;;;;;;;7.08;100.00;100568.69;5070552;28;20028;-68
2024/01/02 11:25:49;;;;;;;4.07;1.20;;;;;;;7.12;100.00;100560.53;5069431;28;20438;-68